Time;durP1;ratioP1;P1;durP2;ratioP2;P2;SDS_P1;SDS_P2;PMS_P1;PMS_P2;Temp;Humidity;BMP_temperature;BMP_pressure;BME280_temperature;BME280_humidity;BME280_pressure;Samples;Min_cycle;Max_cycle;Signal;HPM_P1;HPM_P2
2023/01/24 00:01:56;;;;;;;;;;;;;;;5.78;100.00;100579.56;5010160;28;20317;-82
2023/01/24 00:04:21;;;;;;;;;;;;;;;5.77;100.00;100582.31;5005334;28;19947;-82
2023/01/24 00:06:46;;;;;;;;;;;;;;;5.75;100.00;100584.16;5011045;28;19917;-82
2023/01/24 00:09:12;;;;;;;;;;;;;;;5.74;100.00;100582.47;5006229;28;20091;-81
2023/01/24 00:11:37;;;;;;;;;;;;;;;5.72;100.00;100579.91;5007157;28;20476;-82
2023/01/24 00:14:02;;;;;;;;;;;;;;;5.71;100.00;100582.66;5004583;28;19917;-82
2023/01/24 00:16:29;;;;;;;;;;;;;;;5.67;100.00;100586.34;5008731;28;20354;-82
2023/01/24 00:18:54;;;;;;;;;;;;;;;5.67;100.00;100591.59;5003871;28;20249;-82
2023/01/24 00:21:22;;;;;;;;;;;;;;;5.67;100.00;100583.72;5009491;28;19924;-83
2023/01/24 00:23:49;;;;;;;;;;;;;;;5.68;100.00;100588.03;5005123;28;19917;-83
2023/01/24 00:26:14;;;;;;;;;;;;;;;5.67;100.00;100588.97;5007119;28;20269;-83
2023/01/24 00:28:42;;;;;;;;;;;;;;;5.65;100.00;100589.09;4992286;28;19918;-83
2023/01/24 00:31:07;;;;;;;;;;;;;;;5.65;100.00;100578.59;5018549;28;20274;-82
2023/01/24 00:33:33;;;;;;;;;;;;;;;5.65;100.00;100583.84;4993139;28;19925;-80
2023/01/24 00:35:58;;;;;;;;;;;;;;;5.64;100.00;100581.31;5009755;28;19921;-80
2023/01/24 00:38:24;;;;;;;;;;;;;;;5.63;100.00;100580.47;4992972;28;19924;-80
2023/01/24 00:40:50;;;;;;;;;;;;;;;5.61;100.00;100581.47;5004955;28;19913;-79
2023/01/24 00:43:15;;;;;;;;;;;;;;;5.59;100.00;100578.09;5008665;28;19921;-80
2023/01/24 00:45:41;;;;;;;;;;;;;;;5.55;100.00;100585.25;5010140;28;20280;-79
2023/01/24 00:48:07;;;;;;;;;;;;;;;5.54;100.00;100587.97;5011314;28;20008;-79
2023/01/24 00:50:32;;;;;;;;;;;;;;;5.53;100.00;100604.63;5011497;28;19921;-80
2023/01/24 00:52:58;;;;;;;;;;;;;;;5.51;100.00;100602.09;5009653;28;20293;-80
2023/01/24 00:55:23;;;;;;;;;;;;;;;5.51;100.00;100609.09;5011900;28;20222;-79
2023/01/24 00:57:49;;;;;;;;;;;;;;;5.50;100.00;100615.25;4993104;28;19945;-80
2023/01/24 01:00:14;;;;;;;;;;;;;;;5.49;100.00;100624.03;5013569;28;19922;-80
2023/01/24 01:02:39;;;;;;;;;;;;;;;5.48;100.00;100624.97;5009602;28;20273;-80
2023/01/24 01:05:05;;;;;;;;;;;;;;;5.47;100.00;100626.75;5005542;28;19963;-80
2023/01/24 01:07:31;;;;;;;;;;;;;;;5.48;100.00;100627.59;4994871;28;19936;-80
2023/01/24 01:09:56;;;;;;;;;;;;;;;5.47;100.00;100628.53;5006769;28;20022;-80
2023/01/24 01:12:22;;;;;;;;;;;;;;;5.44;100.00;100619.06;4996006;28;20289;-80
2023/01/24 01:14:47;;;;;;;;;;;;;;;5.41;100.00;100631.47;5030570;28;20016;-80
2023/01/24 01:17:12;;;;;;;;;;;;;;;5.39;100.00;100623.69;4995749;28;19918;-80
2023/01/24 01:19:37;;;;;;;;;;;;;;;5.38;100.00;100626.41;5014095;28;19956;-80
2023/01/24 01:22:03;;;;;;;;;;;;;;;5.36;100.00;100629.94;5010359;28;19918;-79
2023/01/24 01:24:28;;;;;;;;;;;;;;;5.38;100.00;100627.25;5010371;28;19921;-79
2023/01/24 01:26:53;;;;;;;;;;;;;;;5.41;100.00;100641.94;5008611;28;19948;-79
2023/01/24 01:29:19;;;;;;;;;;;;;;;5.41;100.00;100629.72;5009460;28;19924;-80
2023/01/24 01:31:44;;;;;;;;;;;;;;;5.43;100.00;100629.59;5012492;28;19914;-79
2023/01/24 01:34:10;;;;;;;;;;;;;;;5.45;100.00;100640.84;4995178;28;19917;-78
2023/01/24 01:36:35;;;;;;;;;;;;;;;5.46;100.00;100639.91;5011580;28;19928;-79
2023/01/24 01:39:00;;;;;;;;;;;;;;;5.47;100.00;100646.84;5021010;28;19924;-79
2023/01/24 01:41:26;;;;;;;;;;;;;;;5.45;100.00;100641.69;4993963;28;19941;-79
2023/01/24 01:46:47;;;;;;;;;;;;;;;5.48;100.00;100643.31;5012241;28;19971;-78
2023/01/24 01:49:26;;;;;;;;;;;;;;;5.46;100.00;100639.91;5007437;28;20396;-79
2023/01/24 01:51:55;;;;;;;;;;;;;;;5.46;100.00;100645.16;5009291;28;19925;-79
2023/01/24 01:54:28;;;;;;;;;;;;;;;5.44;100.00;100653.09;5010885;28;20335;-79
2023/01/24 01:56:59;;;;;;;;;;;;;;;5.43;100.00;100650.53;5011278;28;19933;-80
2023/01/24 01:59:27;;;;;;;;;;;;;;;5.42;100.00;100643.66;5005800;28;19928;-80
2023/01/24 02:01:54;;;;;;;;;;;;;;;5.43;100.00;100658.41;4992506;28;19922;-80
2023/01/24 02:04:31;;;;;;;;;;;;;;;5.43;100.00;100654.00;5005962;28;19945;-79
2023/01/24 02:07:03;;;;;;;;;;;;;;;5.43;100.00;100666.25;5010334;28;19943;-79
2023/01/24 02:09:32;;;;;;;;;;;;;;;5.42;100.00;100668.03;5009293;28;19922;-79
2023/01/24 02:11:59;;;;;;;;;;;;;;;5.41;100.00;100665.50;5006629;28;19917;-79
2023/01/24 02:17:10;;;;;;;;;;;;;;;5.38;100.00;100673.50;5007836;28;19917;-79
2023/01/24 02:19:50;;;;;;;;;;;;;;;5.39;100.00;100675.22;5010572;28;19924;-79
2023/01/24 02:22:35;;;;;;;;;;;;;;;5.39;100.00;100677.81;5025454;28;19917;-82
2023/01/24 02:25:21;;;;;;;;;;;;;;;5.39;100.00;100680.44;4996008;28;19918;-80
2023/01/24 02:27:46;;;;;;;;;;;;;;;5.39;100.00;100680.44;5006401;28;19917;-80
2023/01/24 02:30:12;;;;;;;;;;;;;;;5.39;100.00;100686.53;4992350;28;20304;-80
2023/01/24 02:32:37;;;;;;;;;;;;;;;5.39;100.00;100696.16;5008640;28;20509;-79
2023/01/24 02:35:04;;;;;;;;;;;;;;;5.39;100.00;100699.59;5008520;28;19964;-79
2023/01/24 02:37:31;;;;;;;;;;;;;;;5.39;100.00;100702.22;5019646;28;19923;-78
2023/01/24 02:40:00;;;;;;;;;;;;;;;5.39;100.00;100706.63;5016113;28;19917;-80
2023/01/24 02:42:29;;;;;;;;;;;;;;;5.38;100.00;100705.75;4990403;28;19918;-79
2023/01/24 02:45:08;;;;;;;;;;;;;;;5.37;100.00;100698.84;4994192;28;19917;-79
2023/01/24 02:47:36;;;;;;;;;;;;;;;5.38;100.00;100710.16;5005921;28;19921;-79
2023/01/24 02:50:02;;;;;;;;;;;;;;;5.38;100.00;100702.31;5006826;28;19918;-78
2023/01/24 02:55:12;;;;;;;;;;;;;;;5.38;100.00;100699.69;5009227;28;19917;-78
2023/01/24 03:00:22;;;;;;;;;;;;;;;5.34;100.00;100701.63;5016554;28;19999;-78
2023/01/24 03:02:47;;;;;;;;;;;;;;;5.33;100.00;100703.41;4992991;28;20338;-77
2023/01/24 03:05:13;;;;;;;;;;;;;;;5.33;100.00;100710.41;5003855;28;19939;-78
2023/01/24 03:07:41;;;;;;;;;;;;;;;5.31;100.00;100707.88;4995399;28;19921;-79
2023/01/24 03:10:12;;;;;;;;;;;;;;;5.30;100.00;100708.78;4991182;28;19932;-78
2023/01/24 03:34:33;;;;;;;;;;;;;;;5.34;100.00;100707.72;5002058;28;19921;-80
2023/01/24 03:37:00;;;;;;;;;;;;;;;5.34;100.00;100710.34;4991128;28;19924;-80
2023/01/24 03:42:10;;;;;;;;;;;;;;;5.34;100.00;100710.34;5005358;28;20350;-79
2023/01/24 03:44:36;;;;;;;;;;;;;;;5.35;100.00;100705.94;5003142;28;19917;-78
2023/01/24 03:47:01;;;;;;;;;;;;;;;5.36;100.00;100711.06;4993140;28;20377;-79
2023/01/24 03:52:28;;;;;;;;;;;;;;;5.36;100.00;100711.06;5009122;28;20004;-80
2023/01/24 03:55:00;;;;;;;;;;;;;;;5.36;100.00;100713.69;5004724;28;20362;-80
2023/01/24 03:57:27;;;;;;;;;;;;;;;5.37;100.00;100719.78;4990326;28;19925;-80
2023/01/24 03:59:56;;;;;;;;;;;;;;;5.40;100.00;100721.41;5015431;28;20282;-80
2023/01/24 04:02:22;;;;;;;;;;;;;;;5.40;100.00;100734.47;5005405;28;19918;-78
2023/01/24 04:07:32;;;;;;;;;;;;;;;5.39;100.00;100732.78;5008508;28;19917;-79
2023/01/24 04:10:01;;;;;;;;;;;;;;;5.40;100.00;100731.88;5007646;28;19923;-79
2023/01/24 04:12:29;;;;;;;;;;;;;;;5.39;100.00;100738.03;4999970;28;19953;-79
2023/01/24 04:14:54;;;;;;;;;;;;;;;5.38;100.00;100733.72;5006177;28;20333;-80
2023/01/24 04:17:20;;;;;;;;;;;;;;;5.38;100.00;100741.56;5004973;28;20285;-80
2023/01/24 04:19:49;;;;;;;;;;;;;;;5.38;100.00;100746.78;4992671;28;20309;-79
2023/01/24 04:22:16;;;;;;;;;;;;;;;5.36;100.00;100742.47;4993012;28;19918;-79
2023/01/24 04:24:41;;;;;;;;;;;;;;;5.35;100.00;100743.44;5006200;28;20365;-80
2023/01/24 04:27:07;;;;;;;;;;;;;;;5.34;100.00;100746.97;4991077;28;19932;-79
2023/01/24 04:29:52;;;;;;;;;;;;;;;5.31;100.00;100741.88;5006618;28;19953;-80
2023/01/24 04:32:18;;;;;;;;;;;;;;;5.29;100.00;100749.00;5013292;28;19933;-80
2023/01/24 04:34:51;;;;;;;;;;;;;;;5.29;100.00;100753.38;4997894;28;19923;-79
2023/01/24 04:37:26;;;;;;;;;;;;;;;5.28;100.00;100752.53;4994175;28;19917;-79
2023/01/24 04:39:52;;;;;;;;;;;;;;;5.29;100.00;100756.84;4985116;28;19922;-80
2023/01/24 04:42:18;;;;;;;;;;;;;;;5.27;100.00;100756.06;4993695;28;19964;-80
2023/01/24 04:44:44;;;;;;;;;;;;;;;5.26;100.00;100759.59;5019046;28;19918;-80
2023/01/24 04:47:11;;;;;;;;;;;;;;;5.25;100.00;100763.13;4992353;28;19971;-80
2023/01/24 04:49:36;;;;;;;;;;;;;;;5.24;100.00;100769.28;4989533;28;19953;-80
2023/01/24 04:52:02;;;;;;;;;;;;;;;5.24;100.00;100771.91;4985098;28;20292;-79
2023/01/24 04:54:40;;;;;;;;;;;;;;;5.25;100.00;100773.59;5003444;28;19917;-79
2023/01/24 04:57:06;;;;;;;;;;;;;;;5.29;100.00;100774.31;4986540;28;19918;-79
2023/01/24 04:59:32;;;;;;;;;;;;;;;5.28;100.00;100776.09;4984828;28;19960;-79
2023/01/24 05:01:58;;;;;;;;;;;;;;;5.29;100.00;100775.16;4993657;28;19969;-79
2023/01/24 05:04:39;;;;;;;;;;;;;;;5.30;100.00;100765.53;4984232;28;20341;-77
2023/01/24 05:07:05;;;;;;;;;;;;;;;5.30;100.00;100766.34;5014685;28;19921;-80
2023/01/24 05:09:32;;;;;;;;;;;;;;;5.31;100.00;100772.44;4984703;28;19918;-79
2023/01/24 05:12:02;;;;;;;;;;;;;;;5.30;100.00;100782.06;4990329;28;20333;-78
2023/01/24 05:14:28;;;;;;;;;;;;;;;5.30;100.00;100787.31;5004891;28;19921;-81
2023/01/24 05:16:54;;;;;;;;;;;;;;;5.30;100.00;100787.31;4989368;28;19921;-80
2023/01/24 05:19:19;;;;;;;;;;;;;;;5.31;100.00;100789.00;5006340;28;19940;-81
2023/01/24 05:21:45;;;;;;;;;;;;;;;5.31;100.00;100799.47;4992818;28;19918;-82
2023/01/24 05:24:10;;;;;;;;;;;;;;;5.31;100.00;100793.38;4984341;28;19918;-81
2023/01/24 05:26:36;;;;;;;;;;;;;;;5.29;100.00;100809.19;5018206;28;19917;-81
2023/01/24 05:29:02;;;;;;;;;;;;;;;5.27;100.00;100805.78;5009158;28;19917;-80
2023/01/24 05:31:29;;;;;;;;;;;;;;;5.26;100.00;100811.09;5015799;28;19921;-80
2023/01/24 05:33:54;;;;;;;;;;;;;;;5.26;100.00;100811.94;5021180;28;19924;-79
2023/01/24 05:36:21;;;;;;;;;;;;;;;5.24;100.00;100813.78;4992414;28;19960;-81
2023/01/24 05:38:47;;;;;;;;;;;;;;;5.23;100.00;100814.72;5008511;28;20050;-80
2023/01/24 05:41:18;;;;;;;;;;;;;;;5.21;100.00;100819.19;5002296;28;19933;-79
2023/01/24 05:43:44;;;;;;;;;;;;;;;5.19;100.00;100821.03;5009812;28;19968;-79
2023/01/24 05:46:11;;;;;;;;;;;;;;;5.17;100.00;100822.91;4992408;28;19924;-79
2023/01/24 05:48:43;;;;;;;;;;;;;;;5.16;100.00;100829.06;4994388;28;19963;-79
2023/01/24 05:51:10;;;;;;;;;;;;;;;5.15;100.00;100840.44;5018630;28;19917;-77
2023/01/24 05:53:37;;;;;;;;;;;;;;;5.15;100.00;100837.81;4995614;28;19925;-79
2023/01/24 05:56:05;;;;;;;;;;;;;;;5.14;100.00;100846.59;4990921;28;19918;-78
2023/01/24 05:58:33;;;;;;;;;;;;;;;5.13;100.00;100847.50;5017089;28;19921;-79
2023/01/24 06:01:12;;;;;;;;;;;;;;;5.12;100.00;100850.22;5003938;28;19917;-79
2023/01/24 06:03:41;;;;;;;;;;;;;;;5.09;100.00;100861.66;5020245;28;20390;-80
2023/01/24 06:06:08;;;;;;;;;;;;;;;5.08;100.00;100859.97;5011073;28;19918;-79
2023/01/24 06:08:34;;;;;;;;;;;;;;;5.08;100.00;100870.44;5019846;28;19917;-80
2023/01/24 06:11:09;;;;;;;;;;;;;;;5.12;100.00;100869.38;4991856;28;19925;-80
2023/01/24 06:13:34;;;;;;;;;;;;;;;5.14;100.00;100870.13;5003617;28;20404;-78
2023/01/24 06:16:02;;;;;;;;;;;;;;;5.16;100.00;100876.16;4995132;28;19921;-80
2023/01/24 06:18:29;;;;;;;;;;;;;;;5.16;100.00;100884.00;5005568;28;20222;-78
2023/01/24 06:20:55;;;;;;;;;;;;;;;5.15;100.00;100887.53;4995263;28;20012;-79
2023/01/24 06:23:27;;;;;;;;;;;;;;;5.15;100.00;100887.53;4990162;28;20016;-79
2023/01/24 06:25:59;;;;;;;;;;;;;;;5.13;100.00;100889.38;5003649;28;20003;-78
2023/01/24 06:28:25;;;;;;;;;;;;;;;5.12;100.00;100899.94;5006145;28;20009;-77
2023/01/24 06:31:02;;;;;;;;;;;;;;;5.12;100.00;100898.16;5004012;28;19958;-79
2023/01/24 06:33:30;;;;;;;;;;;;;;;5.12;100.00;100895.56;5007646;28;19957;-78
2023/01/24 06:36:01;;;;;;;;;;;;;;;5.09;100.00;100900.91;5010689;28;19924;-78
2023/01/24 06:38:27;;;;;;;;;;;;;;;5.10;100.00;100905.22;5008051;28;20011;-78
2023/01/24 06:40:56;;;;;;;;;;;;;;;5.07;100.00;100910.59;5013880;28;19984;-77
2023/01/24 06:43:22;;;;;;;;;;;;;;;5.06;100.00;100908.09;5010870;28;21370;-78
2023/01/24 06:45:47;;;;;;;;;;;;;;;5.05;100.00;100907.22;5014240;28;19953;-79
2023/01/24 06:48:14;;;;;;;;;;;;;;;5.03;100.00;100916.06;5009327;28;19917;-78
2023/01/24 06:50:40;;;;;;;;;;;;;;;5.02;100.00;100911.75;5011733;28;20008;-79
2023/01/24 06:53:05;;;;;;;;;;;;;;;5.01;100.00;100918.75;5001922;28;20015;-79
2023/01/24 06:55:30;;;;;;;;;;;;;;;5.01;100.00;100923.97;5010390;28;20058;-78
2023/01/24 06:57:57;;;;;;;;;;;;;;;5.02;100.00;100923.06;5004381;28;20409;-80
2023/01/24 07:00:22;;;;;;;;;;;;;;;5.03;100.00;100924.75;5008345;28;21439;-80
2023/01/24 07:02:47;;;;;;;;;;;;;;;5.05;100.00;100925.53;5009295;28;19923;-81
2023/01/24 07:05:13;;;;;;;;;;;;;;;5.06;100.00;100924.63;5019713;28;19956;-79
2023/01/24 07:07:38;;;;;;;;;;;;;;;5.08;100.00;100930.63;5011002;28;19921;-78
2023/01/24 07:10:03;;;;;;;;;;;;;;;5.10;100.00;100926.16;5008040;28;20375;-79
2023/01/24 07:12:29;;;;;;;;;;;;;;;5.13;100.00;100931.22;5004705;28;19921;-78
2023/01/24 07:14:54;;;;;;;;;;;;;;;5.13;100.00;100936.47;4998362;28;20406;-77
2023/01/24 07:17:20;;;;;;;;;;;;;;;5.15;100.00;100934.63;5007639;28;19963;-79
2023/01/24 07:19:45;;;;;;;;;;;;;;;5.16;100.00;100935.47;5007145;28;19963;-79
2023/01/24 07:22:12;;;;;;;;;;;;;;;5.17;100.00;100938.03;5005639;28;20328;-77
2023/01/24 07:24:37;;;;;;;;;;;;;;;5.18;100.00;100942.34;5008594;28;20914;-77
2023/01/24 07:27:03;;;;;;;;;;;;;;;5.20;100.00;100940.47;5005100;28;20048;-78
2023/01/24 07:29:28;;;;;;;;;;;;;;;5.21;100.00;100939.56;5008627;28;19944;-76
2023/01/24 07:31:53;;;;;;;;;;;;;;;5.23;100.00;100942.97;5007491;28;19932;-75
2023/01/24 07:34:19;;;;;;;;;;;;;;;5.24;100.00;100949.88;5009074;28;19917;-76
2023/01/24 07:36:45;;;;;;;;;;;;;;;5.27;100.00;100954.97;5010910;28;19918;-75
2023/01/24 07:39:10;;;;;;;;;;;;;;;5.30;100.00;100953.97;5007974;28;19918;-78
2023/01/24 07:41:36;;;;;;;;;;;;;;;5.33;100.00;100954.66;5007621;28;19921;-78
2023/01/24 07:44:05;;;;;;;;;;;;;;;5.36;100.00;100949.28;4992081;28;20407;-78
2023/01/24 07:46:32;;;;;;;;;;;;;;;5.41;100.00;100966.53;5009387;28;19932;-78
2023/01/24 07:48:57;;;;;;;;;;;;;;;5.43;100.00;100969.91;5010104;28;19918;-77
2023/01/24 07:51:22;;;;;;;;;;;;;;;5.45;100.00;100973.31;5004007;28;19925;-73
2023/01/24 07:53:48;;;;;;;;;;;;;;;5.48;100.00;100975.78;5008517;28;20016;-73
2023/01/24 07:56:15;;;;;;;;;;;;;;;5.49;100.00;100977.47;5003488;28;20017;-76
2023/01/24 07:58:40;;;;;;;;;;;;;;;5.52;100.00;100982.56;4986625;28;19961;-75
2023/01/24 08:01:05;;;;;;;;;;;;;;;5.53;100.00;100982.50;5010310;28;19956;-76
2023/01/24 08:03:31;;;;;;;;;;;;;;;5.55;100.00;100985.00;5006978;28;20025;-74
2023/01/24 08:05:57;;;;;;;;;;;;;;;5.58;100.00;100990.13;5005354;28;19924;-76
2023/01/24 08:08:22;;;;;;;;;;;;;;;5.60;100.00;100994.31;5006714;28;20066;-78
2023/01/24 08:10:47;;;;;;;;;;;;;;;5.61;100.00;100990.78;4992293;28;19918;-76
2023/01/24 08:13:13;;;;;;;;;;;;;;;5.63;100.00;101002.06;5005248;28;19955;-76
2023/01/24 08:15:38;;;;;;;;;;;;;;;5.67;100.00;101005.34;5002700;28;19921;-74
2023/01/24 08:18:03;;;;;;;;;;;;;;;5.69;100.00;101004.38;5008460;28;19917;-75
2023/01/24 08:20:29;;;;;;;;;;;;;;;5.73;100.00;101002.44;5006250;28;19925;-77
2023/01/24 08:22:57;;;;;;;;;;;;;;;5.74;100.00;101007.59;5008776;28;19917;-76
2023/01/24 08:25:22;;;;;;;;;;;;;;;5.79;100.00;101015.22;5002145;28;19926;-74
2023/01/24 08:27:48;;;;;;;;;;;;;;;5.83;100.00;101015.94;5005236;28;19921;-75
2023/01/24 08:30:13;;;;;;;;;;;;;;;5.87;100.00;101020.97;5006685;28;20335;-77
2023/01/24 08:32:39;;;;;;;;;;;;;;;5.92;100.00;101021.56;5009130;28;19921;-78
2023/01/24 08:35:04;;;;;;;;;;;;;;;5.97;100.00;101030.03;5005976;28;19917;-76
2023/01/24 08:37:30;;;;;;;;;;;;;;;6.01;100.00;101023.72;5010734;28;19921;-76
2023/01/24 08:39:56;;;;;;;;;;;;;;;6.06;100.00;101028.75;5006249;28;19922;-75
2023/01/24 08:42:22;;;;;;;;;;;;;;;6.11;100.00;101038.06;5007327;28;20343;-76
2023/01/24 08:44:47;;;;;;;;;;;;;;;6.20;100.00;101035.88;5005151;28;19926;-76
2023/01/24 08:47:13;;;;;;;;;;;;;;;6.28;100.00;101034.56;5005318;28;19971;-76
2023/01/24 08:49:38;;;;;;;;;;;;;;;6.33;100.00;101044.81;4997302;28;19925;-76
2023/01/24 08:52:04;;;;;;;;;;;;;;;6.41;100.00;101045.28;5001763;28;19924;-73
2023/01/24 08:54:32;;;;;;;;;;;;;;;6.48;100.00;101047.47;5010030;28;19917;-75
2023/01/24 08:56:57;;;;;;;;;;;;;;;6.52;100.00;101056.03;4990707;28;20361;-74
2023/01/24 08:59:22;;;;;;;;;;;;;;;6.61;100.00;101052.91;5008948;28;19932;-76
2023/01/24 09:01:48;;;;;;;;;;;;;;;6.68;100.00;101049.06;5006852;28;20040;-75
2023/01/24 09:04:13;;;;;;;;;;;;;;;6.69;100.00;101055.16;5009676;28;20302;-76
2023/01/24 09:06:38;;;;;;;;;;;;;;;6.65;100.00;101054.47;5012848;28;19999;-75
2023/01/24 09:09:04;;;;;;;;;;;;;;;6.64;100.00;101054.53;5011120;28;19917;-75
2023/01/24 09:11:30;;;;;;;;;;;;;;;6.63;100.00;101052.84;5006230;28;20433;-75
2023/01/24 09:13:55;;;;;;;;;;;;;;;6.62;100.00;101054.63;5011631;28;19918;-76
2023/01/24 09:16:20;;;;;;;;;;;;;;;6.63;100.00;101066.81;5007132;28;20051;-76
2023/01/24 09:18:46;;;;;;;;;;;;;;;6.64;100.00;101073.75;5009872;28;20016;-76
2023/01/24 09:21:11;;;;;;;;;;;;;;;6.65;100.00;101075.47;5010905;28;19921;-75
2023/01/24 09:23:37;;;;;;;;;;;;;;;6.67;100.00;101068.34;5007999;28;19925;-75
2023/01/24 09:26:02;;;;;;;;;;;;;;;6.69;100.00;101070.88;5009609;28;20487;-77
2023/01/24 09:28:28;;;;;;;;;;;;;;;6.68;100.00;101075.28;5009825;28;20337;-76
2023/01/24 09:30:53;;;;;;;;;;;;;;;6.71;100.00;101075.13;5009789;28;19991;-77
2023/01/24 09:33:19;;;;;;;;;;;;;;;6.75;100.00;101081.91;5007095;28;19929;-76
2023/01/24 09:35:58;;;;;;;;;;;;;;;6.78;100.00;101080.88;5007789;28;19917;-77
2023/01/24 09:38:26;;;;;;;;;;;;;;;6.81;100.00;101080.72;5007985;28;19926;-76
2023/01/24 09:41:09;;;;;;;;;;;;;;;6.84;100.00;101081.41;5008086;28;20511;-76
2023/01/24 09:43:50;;;;;;;;;;;;;;;6.87;100.00;101076.00;5000685;28;19957;-76
2023/01/24 09:46:19;;;;;;;;;;;;;;;6.90;100.00;101075.81;4994167;28;19918;-77
2023/01/24 09:48:46;;;;;;;;;;;;;;;6.92;100.00;101076.59;5009256;28;20419;-76
2023/01/24 09:51:31;;;;;;;;;;;;;;;6.96;100.00;101074.66;5008170;28;19913;-75
2023/01/24 09:53:58;;;;;;;;;;;;;;;7.00;100.00;101073.56;5012408;28;19917;-75
2023/01/24 09:56:30;;;;;;;;;;;;;;;7.01;100.00;101077.88;5008673;28;19979;-76
2023/01/24 09:59:14;;;;;;;;;;;;;;;7.01;100.00;101072.63;5009033;28;19918;-74
2023/01/24 10:01:40;;;;;;;;;;;;;;;7.03;100.00;101072.53;5009299;28;19996;-76
2023/01/24 10:04:24;;;;;;;;;;;;;;;7.04;100.00;101071.63;4976689;28;20400;-76
2023/01/24 10:06:55;;;;;;;;;;;;;;;7.10;100.00;101066.03;5012355;28;19913;-76
2023/01/24 10:09:30;;;;;;;;;;;;;;;7.12;100.00;101064.19;5011649;28;20324;-76
2023/01/24 10:11:56;;;;;;;;;;;;;;;7.15;100.00;101070.09;5008350;28;19913;-78
2023/01/24 10:14:31;;;;;;;;;;;;;;;7.15;100.00;101069.25;4992299;28;19918;-76
2023/01/24 10:17:14;;;;;;;;;;;;;;;7.17;100.00;101067.41;5008865;28;21114;-77
2023/01/24 10:19:43;;;;;;;;;;;;;;;7.19;100.00;101065.50;5003192;28;20273;-76
2023/01/24 10:22:34;;;;;;;7.43;6.80;;;;;;;7.25;100.00;101071.28;5007937;28;20083;-77
2023/01/24 10:25:05;;;;;;;7.45;6.75;;;;;;;7.32;100.00;101063.91;5006603;28;20054;-74
2023/01/24 10:27:44;;;;;;;7.90;7.10;;;;;;;7.38;100.00;101071.44;5007469;28;20911;-74
2023/01/24 10:30:41;;;;;;;7.05;6.40;;;;;;;7.50;100.00;101070.75;5006065;28;20092;-76
2023/01/24 10:33:16;;;;;;;6.10;5.60;;;;;;;7.61;100.00;101071.00;5000077;28;20118;-76
2023/01/24 10:36:04;;;;;;;6.72;5.35;;;;;;;7.68;100.00;101064.47;5007939;28;20553;-73
2023/01/24 10:38:29;;;;;;;5.88;5.22;;;;;;;7.75;100.00;101055.31;5003973;28;20092;-74
2023/01/24 10:41:08;;;;;;;5.93;5.40;;;;;;;7.78;100.00;101060.38;5010671;28;20417;-75
2023/01/24 10:43:34;;;;;;;5.65;5.15;;;;;;;7.83;100.00;101053.06;4990432;28;20456;-75
2023/01/24 10:46:29;;;;;;;;;;;;;;;7.88;100.00;101049.34;5008069;28;19949;-75
2023/01/24 10:48:56;;;;;;;;;;;;;;;7.89;100.00;101056.28;5010313;28;20274;-75
2023/01/24 10:51:22;;;;;;;;;;;;;;;7.90;100.00;101044.81;5008308;28;19960;-75
2023/01/24 10:53:48;;;;;;;;;;;;;;;7.96;100.00;101047.09;5011429;28;19944;-76
2023/01/24 10:56:14;;;;;;;;;;;;;;;8.02;100.00;101041.47;5007172;28;19922;-74
2023/01/24 10:59:03;;;;;;;;;;;;;;;8.06;100.00;101048.25;5008003;28;20323;-76
2023/01/24 11:01:32;;;;;;;;;;;;;;;8.08;100.00;101051.63;5001194;28;19945;-74
2023/01/24 11:03:58;;;;;;;;;;;;;;;8.11;100.00;101056.72;5009635;28;19976;-75
2023/01/24 11:06:30;;;;;;;;;;;;;;;8.12;100.00;101058.41;5008290;28;19930;-75
2023/01/24 11:09:01;;;;;;;;;;;;;;;8.13;100.00;101058.31;5010829;28;19973;-76
2023/01/24 11:11:32;;;;;;;;;;;;;;;8.14;100.00;101053.91;5005295;28;19921;-75
2023/01/24 11:13:59;;;;;;;;;;;;;;;8.13;100.00;101052.19;5008087;28;19921;-75
2023/01/24 11:16:41;;;;;;;;;;;;;;;8.12;100.00;101050.53;5010901;28;20357;-76
2023/01/24 11:19:20;;;;;;;;;;;;;;;8.15;100.00;101048.56;5007029;28;19929;-75
2023/01/24 11:21:52;;;;;;;;;;;;;;;8.18;100.00;101055.44;5011176;28;19979;-76
2023/01/24 11:24:19;;;;;;;;;;;;;;;8.17;100.00;101048.47;5007451;28;20005;-75
2023/01/24 11:26:53;;;;;;;;;;;;;;;8.17;100.00;101051.94;5003087;28;19928;-77
2023/01/24 11:29:19;;;;;;;;;;;;;;;8.18;100.00;101052.78;5001303;28;19925;-76
2023/01/24 11:31:44;;;;;;;;;;;;;;;8.18;100.00;101052.78;5006151;28;19993;-77
2023/01/24 11:34:23;;;;;;;;;;;;;;;8.20;100.00;101050.91;5004491;28;20389;-76
2023/01/24 11:36:49;;;;;;;;;;;;;;;8.21;100.00;101042.94;5001355;28;20366;-76
2023/01/24 11:39:23;;;;;;;;;;;;;;;8.22;100.00;101036.75;4999211;28;19957;-74
2023/01/24 11:41:53;;;;;;;;;;;;;;;8.24;100.00;101031.41;5000391;28;19930;-76
2023/01/24 11:44:38;;;;;;;;;;;;;;;8.26;100.00;101024.25;5005331;28;19921;-76
2023/01/24 11:47:09;;;;;;;;;;;;;;;8.30;100.00;101025.81;5006075;28;19921;-76
2023/01/24 11:49:53;;;;;;;;;;;;;;;8.33;100.00;101025.59;5013376;28;20289;-76
2023/01/24 11:52:42;;;;;;;;;;;;;;;8.33;100.00;101017.72;5013393;28;19926;-76
2023/01/24 11:55:26;;;;;;;;;;;;;;;8.30;100.00;101020.53;5000701;28;19946;-76
2023/01/24 11:58:00;;;;;;;;;;;;;;;8.29;100.00;101013.56;5001297;28;19959;-76
2023/01/24 12:00:44;;;;;;;;;;;;;;;8.28;100.00;101018.91;5002539;28;19923;-75
2023/01/24 12:03:10;;;;;;;;;;;;;;;8.26;100.00;101018.97;4998152;28;19925;-74
2023/01/24 12:05:53;;;;;;;;;;;;;;;8.24;100.00;101010.34;5002730;28;20008;-75
2023/01/24 12:08:40;;;;;;;;;;;;;;;8.26;100.00;101012.88;5001912;28;20301;-76
2023/01/24 12:11:14;;;;;;;;;;;;;;;8.27;100.00;101004.91;5005058;28;19930;-75
2023/01/24 12:13:46;;;;;;;;;;;;;;;8.30;100.00;101004.75;4994596;28;20381;-76
2023/01/24 12:16:14;;;;;;;;;;;;;;;8.31;100.00;101005.56;5007166;28;19922;-76
2023/01/24 12:19:01;;;;;;;;;;;;;;;8.32;100.00;101002.84;5001305;28;19952;-75
2023/01/24 12:21:26;;;;;;;;;;;;;;;8.35;100.00;101002.69;4997985;28;19933;-75
2023/01/24 12:23:55;;;;;;;;;;;;;;;8.34;100.00;100995.72;4999589;28;19922;-74
2023/01/24 12:26:20;;;;;;;;;;;;;;;8.34;100.00;101001.00;5001363;28;20009;-74
2023/01/24 12:28:45;;;;;;;;;;;;;;;8.33;100.00;100996.66;4991277;28;21154;-76
2023/01/24 12:31:15;;;;;;;;;;;;;;;8.32;100.00;100997.59;4996458;28;19945;-74
2023/01/24 12:33:45;;;;;;;;;;;;;;;8.28;100.00;100990.81;5007060;28;19956;-76
2023/01/24 12:36:14;;;;;;;;;;;;;;;8.27;100.00;100983.84;4999320;28;20285;-74
2023/01/24 12:38:46;;;;;;;;;;;;;;;8.27;100.00;100978.59;5008062;28;19933;-76
2023/01/24 12:41:27;;;;;;;;;;;;;;;8.27;100.00;100977.75;5007979;28;20404;-76
2023/01/24 12:44:11;;;;;;;;;;;;;;;8.26;100.00;100979.53;5006010;28;20008;-75
2023/01/24 12:46:45;;;;;;;;;;;;;;;8.25;100.00;100974.38;5006530;28;20011;-76
2023/01/24 12:49:23;;;;;;;;;;;;;;;8.25;100.00;100975.19;4983744;28;19957;-76
2023/01/24 12:51:55;;;;;;;;;;;;;;;8.28;100.00;100974.19;5006967;28;20370;-76
2023/01/24 12:54:46;;;;;;;;;;;;;;;8.28;100.00;100982.06;5003838;28;19921;-75
2023/01/24 12:57:11;;;;;;;;;;;;;;;8.28;100.00;100976.81;5005655;28;20317;-75
2023/01/24 12:59:36;;;;;;;;;;;;;;;8.28;100.00;100980.28;5005489;28;19987;-76
2023/01/24 13:02:20;;;;;;;;;;;;;;;8.29;100.00;100987.25;5005271;28;19921;-76
2023/01/24 13:04:49;;;;;;;;;;;;;;;8.30;100.00;100978.47;5008824;28;20293;-77
2023/01/24 13:07:14;;;;;;;;;;;;;;;8.30;100.00;100978.47;5009091;28;19929;-76
2023/01/24 13:09:39;;;;;;;;;;;;;;;8.30;100.00;100973.19;5004478;28;20265;-75
2023/01/24 13:12:10;;;;;;;;;;;;;;;8.31;100.00;100971.38;5004854;28;19922;-75
2023/01/24 13:14:42;;;;;;;;;;;;;;;8.33;100.00;100973.00;5006030;28;20208;-75
2023/01/24 13:17:13;;;;;;;;;;;;;;;8.35;100.00;100965.88;5005828;28;20416;-77
2023/01/24 13:19:39;;;;;;;;;;;;;;;8.38;100.00;100964.81;5004464;28;20545;-77
2023/01/24 13:22:13;;;;;;;;;;;;;;;8.48;100.00;100966.78;5004118;28;19928;-77
2023/01/24 13:24:57;;;;;;;;;;;;;;;8.66;100.00;100964.78;5011536;28;20018;-76
2023/01/24 13:27:22;;;;;;;;;;;;;;;8.80;100.00;100963.94;4990320;28;19968;-78